createdAt,value
2023-02-19T00:00:02.018Z,7.96
2023-02-19T00:02:30.505Z,8.03
2023-02-19T00:04:59.858Z,8.09
2023-02-19T00:07:28.284Z,8.14
2023-02-19T00:09:56.726Z,8.21
2023-02-19T00:12:24.831Z,8.24
2023-02-19T00:14:52.903Z,8.24
2023-02-19T00:17:20.980Z,8.23
2023-02-19T00:19:48.991Z,8.24
2023-02-19T00:22:17.265Z,8.23
2023-02-19T00:24:46.489Z,8.25
2023-02-19T00:27:16.380Z,8.28
2023-02-19T00:29:45.175Z,8.30
2023-02-19T00:32:13.474Z,8.31
2023-02-19T00:34:41.782Z,8.31
2023-02-19T00:37:10.058Z,8.30
2023-02-19T00:39:38.593Z,8.30
2023-02-19T00:42:06.816Z,8.32
2023-02-19T00:44:35.315Z,8.33
2023-02-19T00:47:03.754Z,8.34
2023-02-19T00:49:32.304Z,8.36
2023-02-19T00:52:00.758Z,8.36
2023-02-19T00:54:29.030Z,8.32
2023-02-19T00:56:57.305Z,8.27
2023-02-19T00:59:25.679Z,8.20
2023-02-19T01:01:53.955Z,8.12
2023-02-19T01:04:22.111Z,8.07
2023-02-19T01:06:50.377Z,8.00
2023-02-19T01:09:18.586Z,7.95
2023-02-19T01:11:46.712Z,7.91
2023-02-19T01:14:15.001Z,7.88
2023-02-19T01:16:43.238Z,7.85
2023-02-19T01:19:13.143Z,7.84
2023-02-19T01:21:42.013Z,7.78
2023-02-19T01:24:11.269Z,7.75
2023-02-19T01:26:43.512Z,7.75
2023-02-19T01:29:11.760Z,7.73
2023-02-19T01:31:42.401Z,7.71
2023-02-19T01:34:12.966Z,7.69
2023-02-19T01:36:44.371Z,7.67
2023-02-19T01:39:12.797Z,7.67
2023-02-19T01:41:47.765Z,7.64
2023-02-19T01:44:19.495Z,7.60
2023-02-19T01:46:52.813Z,7.57
2023-02-19T01:49:38.566Z,7.54
2023-02-19T01:52:32.810Z,7.49
2023-02-19T01:55:11.123Z,7.44
2023-02-19T01:57:45.333Z,7.40
2023-02-19T02:00:16.918Z,7.35
2023-02-19T02:02:54.892Z,7.32
2023-02-19T02:05:37.927Z,7.30
2023-02-19T02:08:25.210Z,7.28
2023-02-19T02:10:55.311Z,7.24
2023-02-19T02:13:26.446Z,7.21
2023-02-19T02:16:08.439Z,7.18
2023-02-19T02:19:06.986Z,7.16
2023-02-19T02:21:56.669Z,7.14
2023-02-19T02:25:13.071Z,7.13
2023-02-19T02:27:50.466Z,7.09
2023-02-19T02:30:33.671Z,7.04
2023-02-19T02:33:11.702Z,6.98
2023-02-19T02:35:46.430Z,6.92
2023-02-19T02:38:18.191Z,6.87
2023-02-19T02:40:47.799Z,6.81
2023-02-19T02:43:16.609Z,6.78
2023-02-19T02:45:45.092Z,6.76
2023-02-19T02:48:21.235Z,6.69
2023-02-19T02:50:58.375Z,6.63
2023-02-19T02:53:52.300Z,6.56
2023-02-19T02:56:25.376Z,6.47
2023-02-19T02:58:56.831Z,6.41
2023-02-19T03:01:52.270Z,6.36
2023-02-19T03:04:31.072Z,6.26
2023-02-19T03:07:04.106Z,6.18
2023-02-19T03:09:40.773Z,6.10
2023-02-19T03:12:33.780Z,6.00
2023-02-19T03:15:28.381Z,5.87
2023-02-19T03:18:36.905Z,5.72
2023-02-19T03:21:08.886Z,5.54
2023-02-19T03:23:58.958Z,5.38
2023-02-19T03:26:28.562Z,5.28
2023-02-19T03:29:17.338Z,5.29
2023-02-19T03:31:49.371Z,5.31
2023-02-19T03:34:23.305Z,5.30
2023-02-19T03:37:12.410Z,5.25
2023-02-19T03:39:46.997Z,5.18
2023-02-19T03:42:35.740Z,5.14
2023-02-19T03:45:11.172Z,5.08
2023-02-19T03:47:58.892Z,5.01
2023-02-19T03:50:55.956Z,4.89
2023-02-19T03:53:30.070Z,4.83
2023-02-19T03:56:11.157Z,4.84
2023-02-19T03:58:47.935Z,4.89
2023-02-19T04:01:30.651Z,4.91
2023-02-19T04:04:09.478Z,4.94
2023-02-19T04:06:41.659Z,4.97
2023-02-19T04:09:14.687Z,5.01
2023-02-19T04:11:44.557Z,5.03
2023-02-19T04:14:35.763Z,5.01
2023-02-19T04:17:10.898Z,4.96
2023-02-19T04:19:42.713Z,4.89
2023-02-19T04:22:12.472Z,4.79
2023-02-19T04:24:49.079Z,4.71
2023-02-19T04:27:18.132Z,4.59
2023-02-19T04:29:46.517Z,4.44
2023-02-19T04:32:14.793Z,4.31
2023-02-19T04:34:43.068Z,4.21
2023-02-19T04:37:11.834Z,4.18
2023-02-19T04:39:39.826Z,4.21
2023-02-19T04:42:08.101Z,4.28
2023-02-19T04:44:36.476Z,4.32
2023-02-19T04:47:04.844Z,4.34
2023-02-19T04:49:33.023Z,4.35
2023-02-19T04:52:01.505Z,4.32
2023-02-19T04:54:39.825Z,4.28
2023-02-19T04:57:08.013Z,4.22
2023-02-19T04:59:38.934Z,4.16
2023-02-19T05:02:07.309Z,4.09
2023-02-19T05:04:35.527Z,4.01
2023-02-19T05:07:03.761Z,3.93
2023-02-19T05:09:31.990Z,3.84
2023-02-19T05:12:00.417Z,3.74
2023-02-19T05:14:28.705Z,3.62
2023-02-19T05:16:57.182Z,3.51
2023-02-19T05:19:25.284Z,3.47
2023-02-19T05:21:53.430Z,3.54
2023-02-19T05:24:22.110Z,3.70
2023-02-19T05:26:51.294Z,3.86
2023-02-19T05:29:21.826Z,4.03
2023-02-19T05:31:50.059Z,4.20
2023-02-19T05:34:18.504Z,4.36
2023-02-19T05:36:46.780Z,4.52
2023-02-19T05:39:14.891Z,4.68
2023-02-19T05:41:43.323Z,4.81
2023-02-19T05:44:11.923Z,4.96
2023-02-19T05:46:40.200Z,5.07
2023-02-19T05:49:08.641Z,5.20
2023-02-19T05:51:37.064Z,5.32
2023-02-19T05:54:05.327Z,5.45
2023-02-19T05:56:38.562Z,5.59
2023-02-19T05:59:21.551Z,5.76
2023-02-19T06:01:54.735Z,5.93
2023-02-19T06:04:23.634Z,6.09
2023-02-19T06:06:51.914Z,6.23
2023-02-19T06:09:20.021Z,6.38
2023-02-19T06:11:48.568Z,6.66
2023-02-19T06:14:16.838Z,6.96
2023-02-19T06:16:45.118Z,7.18
2023-02-19T06:19:13.235Z,7.32
2023-02-19T06:21:49.762Z,7.47
2023-02-19T06:24:17.992Z,7.63
2023-02-19T06:26:46.690Z,7.82
2023-02-19T06:29:14.836Z,8.00
2023-02-19T06:31:46.159Z,8.11
2023-02-19T06:34:17.302Z,8.20
2023-02-19T06:36:45.560Z,8.26
2023-02-19T06:39:23.813Z,8.28
2023-02-19T06:41:54.817Z,8.29
2023-02-19T06:44:25.964Z,8.31
2023-02-19T06:46:57.310Z,8.33
2023-02-19T06:49:25.918Z,8.36
2023-02-19T06:51:54.284Z,8.41
2023-02-19T06:54:25.835Z,8.44
2023-02-19T06:56:54.005Z,8.52
2023-02-19T06:59:22.586Z,8.58
2023-02-19T07:01:50.863Z,8.59
2023-02-19T07:04:19.504Z,8.58
2023-02-19T07:06:47.932Z,8.63
2023-02-19T07:09:16.068Z,8.65
2023-02-19T07:11:46.843Z,8.67
2023-02-19T07:14:20.632Z,8.71
2023-02-19T07:16:48.848Z,8.81
2023-02-19T07:19:17.284Z,8.93
2023-02-19T07:21:45.487Z,9.04
2023-02-19T07:24:13.686Z,9.10
2023-02-19T07:26:45.094Z,9.12
2023-02-19T07:29:13.588Z,9.14
2023-02-19T07:31:47.727Z,9.14
2023-02-19T07:34:15.966Z,9.16
2023-02-19T07:36:46.237Z,9.20
2023-02-19T07:39:15.945Z,9.28
2023-02-19T07:41:44.078Z,9.43
2023-02-19T07:44:27.101Z,9.66
2023-02-19T07:46:58.144Z,9.98
2023-02-19T07:49:30.718Z,10.43
2023-02-19T07:51:58.997Z,10.97
2023-02-19T07:54:27.368Z,11.59
2023-02-19T07:56:56.034Z,12.43
2023-02-19T07:59:24.131Z,13.75
2023-02-19T08:02:11.154Z,15.28
2023-02-19T08:04:39.738Z,16.63
2023-02-19T08:07:07.891Z,17.64
2023-02-19T08:09:36.183Z,18.52
2023-02-19T08:12:22.957Z,19.05
2023-02-19T08:14:51.046Z,19.49
2023-02-19T08:17:19.261Z,19.86
2023-02-19T08:19:47.347Z,20.18
2023-02-19T08:22:16.506Z,20.86
2023-02-19T08:24:45.234Z,21.55
2023-02-19T08:27:13.808Z,22.85
2023-02-19T08:29:42.089Z,24.44
2023-02-19T08:32:10.504Z,25.61
2023-02-19T08:34:38.742Z,26.99
2023-02-19T08:37:06.715Z,28.57
2023-02-19T08:39:34.882Z,30.14
2023-02-19T08:42:03.329Z,31.47
2023-02-19T08:44:33.426Z,32.42
2023-02-19T08:47:02.581Z,32.96
2023-02-19T08:49:30.909Z,33.67
2023-02-19T08:51:59.238Z,34.15
2023-02-19T08:54:27.165Z,32.85
2023-02-19T08:56:55.219Z,31.15
2023-02-19T08:59:24.008Z,29.86
2023-02-19T09:01:53.377Z,28.92
2023-02-19T09:04:21.505Z,27.71
2023-02-19T09:06:49.710Z,26.49
2023-02-19T09:09:18.004Z,25.16
2023-02-19T09:11:49.061Z,23.45
2023-02-19T09:14:17.798Z,22.01
2023-02-19T09:16:48.154Z,21.73
2023-02-19T09:19:16.525Z,22.00
2023-02-19T09:21:45.005Z,22.30
2023-02-19T09:24:13.599Z,22.34
2023-02-19T09:26:41.769Z,22.65
2023-02-19T09:29:10.046Z,23.39
2023-02-19T09:31:38.457Z,23.96
2023-02-19T09:34:06.767Z,23.93
2023-02-19T09:36:34.871Z,23.87
2023-02-19T09:39:04.695Z,24.35
2023-02-19T09:41:37.100Z,24.80
2023-02-19T09:44:09.733Z,25.33
2023-02-19T09:46:53.177Z,25.89
2023-02-19T09:49:27.197Z,26.41
2023-02-19T09:51:58.850Z,26.73
2023-02-19T09:54:30.714Z,26.61
2023-02-19T09:57:02.286Z,26.31
2023-02-19T09:59:48.243Z,25.32
2023-02-19T10:02:22.268Z,23.91
2023-02-19T10:04:52.285Z,23.12
2023-02-19T10:07:24.193Z,21.73
2023-02-19T10:10:21.490Z,21.11
2023-02-19T10:12:55.995Z,20.26
2023-02-19T10:15:27.367Z,19.50
2023-02-19T10:17:55.795Z,19.24
2023-02-19T10:20:27.948Z,19.10
2023-02-19T10:23:06.502Z,18.75
2023-02-19T10:25:35.732Z,18.46
2023-02-19T10:28:05.140Z,18.33
2023-02-19T10:30:36.076Z,17.88
2023-02-19T10:33:12.710Z,17.63
2023-02-19T10:36:03.656Z,17.25
2023-02-19T10:38:35.406Z,16.92
2023-02-19T10:41:18.536Z,16.68
2023-02-19T10:44:13.722Z,16.40
2023-02-19T10:46:48.978Z,15.93
2023-02-19T10:49:30.881Z,15.56
2023-02-19T10:52:17.746Z,15.32
2023-02-19T10:54:50.472Z,14.88
2023-02-19T10:57:18.649Z,14.61
2023-02-19T11:00:10.987Z,14.37
2023-02-19T11:02:39.075Z,14.26
2023-02-19T11:05:16.410Z,14.28
2023-02-19T11:07:54.689Z,14.30
2023-02-19T11:10:30.387Z,14.27
2023-02-19T11:13:02.410Z,14.22
2023-02-19T11:15:36.117Z,14.09
2023-02-19T11:18:08.148Z,13.88
2023-02-19T11:20:36.187Z,13.71
2023-02-19T11:23:15.470Z,13.61
2023-02-19T11:25:48.826Z,13.66
2023-02-19T11:28:16.922Z,13.77
2023-02-19T11:30:47.214Z,13.83
2023-02-19T11:33:24.807Z,14.04
2023-02-19T11:36:11.956Z,14.30
2023-02-19T11:38:40.032Z,14.47
2023-02-19T11:41:49.731Z,14.55
2023-02-19T11:44:35.479Z,14.68
2023-02-19T11:47:32.520Z,14.82
2023-02-19T11:50:15.955Z,14.91
2023-02-19T11:53:28.885Z,14.91
2023-02-19T11:56:09.166Z,14.99
2023-02-19T11:59:01.078Z,14.92
2023-02-19T12:01:51.395Z,14.88
2023-02-19T12:04:38.168Z,14.82
2023-02-19T12:07:16.899Z,14.69
2023-02-19T12:09:55.265Z,14.58
2023-02-19T12:12:52.379Z,14.51
2023-02-19T12:15:44.089Z,14.44
2023-02-19T12:18:30.486Z,14.27
2023-02-19T12:21:12.850Z,14.17
2023-02-19T12:23:59.289Z,14.05
2023-02-19T12:26:59.442Z,13.83
2023-02-19T12:29:30.259Z,13.62
2023-02-19T12:32:21.668Z,13.40
2023-02-19T12:34:52.402Z,13.23
2023-02-19T12:37:41.672Z,13.14
2023-02-19T12:40:33.715Z,13.12
2023-02-19T12:43:19.636Z,13.09
2023-02-19T12:46:00.381Z,13.09
2023-02-19T12:48:31.956Z,13.09
2023-02-19T12:51:30.454Z,13.09
2023-02-19T12:54:06.874Z,12.99
2023-02-19T12:56:42.284Z,12.82
2023-02-19T12:59:23.705Z,12.68
2023-02-19T13:01:58.301Z,12.58
2023-02-19T13:04:37.473Z,12.44
2023-02-19T13:07:21.818Z,12.29
2023-02-19T13:10:00.853Z,12.12
2023-02-19T13:12:30.775Z,12.08
2023-02-19T13:15:09.973Z,12.01
2023-02-19T13:17:41.699Z,11.87
2023-02-19T13:20:19.009Z,11.68
2023-02-19T13:23:20.295Z,11.51
2023-02-19T13:26:08.335Z,11.34
2023-02-19T13:29:20.245Z,11.23
2023-02-19T13:32:36.512Z,11.06
2023-02-19T13:35:11.633Z,10.99
2023-02-19T13:37:40.900Z,10.96
2023-02-19T13:40:43.152Z,10.88
2023-02-19T13:43:43.063Z,10.74
2023-02-19T13:46:16.587Z,10.68
2023-02-19T13:48:45.597Z,10.62
2023-02-19T13:51:21.616Z,10.57
2023-02-19T13:53:56.047Z,10.57
2023-02-19T13:56:31.460Z,10.57
2023-02-19T13:59:23.523Z,10.56
2023-02-19T14:01:52.215Z,10.52
2023-02-19T14:04:22.877Z,10.49
2023-02-19T14:07:03.605Z,10.43
2023-02-19T14:09:37.838Z,10.32
2023-02-19T14:12:18.087Z,10.27
2023-02-19T14:14:54.297Z,10.21
2023-02-19T14:17:45.892Z,10.12
2023-02-19T14:20:17.115Z,10.11
2023-02-19T14:22:50.131Z,10.22
2023-02-19T14:25:27.733Z,10.37
2023-02-19T14:28:24.256Z,10.50
2023-02-19T14:30:53.652Z,10.64
2023-02-19T14:33:32.452Z,10.74
2023-02-19T14:36:07.399Z,10.77
2023-02-19T14:38:47.140Z,10.75
2023-02-19T14:41:17.329Z,10.70
2023-02-19T14:43:49.043Z,10.63
2023-02-19T14:46:38.038Z,10.61
2023-02-19T14:49:18.138Z,10.54
2023-02-19T14:51:51.431Z,10.41
2023-02-19T14:54:38.143Z,10.36
2023-02-19T14:57:13.774Z,10.32
2023-02-19T14:59:53.578Z,10.28
2023-02-19T15:02:24.109Z,10.28
2023-02-19T15:04:53.696Z,10.26
2023-02-19T15:07:25.435Z,10.26
2023-02-19T15:10:03.677Z,10.24
2023-02-19T15:12:47.690Z,10.21
2023-02-19T15:15:22.212Z,10.17
2023-02-19T15:17:52.739Z,10.18
2023-02-19T15:20:24.705Z,10.19
2023-02-19T15:22:55.096Z,10.19
2023-02-19T15:25:27.110Z,10.20
2023-02-19T15:27:55.427Z,10.20
2023-02-19T15:30:29.646Z,10.19
2023-02-19T15:33:00.156Z,10.17
2023-02-19T15:35:30.671Z,10.10
2023-02-19T15:37:58.936Z,10.08
2023-02-19T15:40:32.561Z,10.07
2023-02-19T15:43:01.434Z,10.07
2023-02-19T15:45:37.891Z,10.04
2023-02-19T15:48:18.663Z,9.99
2023-02-19T15:50:52.256Z,9.91
2023-02-19T15:53:29.805Z,9.84
2023-02-19T15:56:09.815Z,9.75
2023-02-19T15:58:38.178Z,9.61
2023-02-19T16:01:15.420Z,9.45
2023-02-19T16:03:43.746Z,9.32
2023-02-19T16:06:15.141Z,9.24
2023-02-19T16:09:06.931Z,9.17
2023-02-19T16:11:59.089Z,9.08
2023-02-19T16:14:27.129Z,9.01
2023-02-19T16:16:57.158Z,8.96
2023-02-19T16:19:28.673Z,8.92
2023-02-19T16:21:58.454Z,8.84
2023-02-19T16:24:31.309Z,8.79
2023-02-19T16:27:04.212Z,8.74
2023-02-19T16:29:36.064Z,8.64
2023-02-19T16:32:07.541Z,8.55
2023-02-19T16:34:43.400Z,8.45
2023-02-19T16:37:41.199Z,8.36
2023-02-19T16:40:09.343Z,8.21
2023-02-19T16:43:06.294Z,8.08
2023-02-19T16:45:34.313Z,7.92
2023-02-19T16:48:03.748Z,7.81
2023-02-19T16:50:31.981Z,7.76
2023-02-19T16:53:02.348Z,7.70
2023-02-19T16:55:32.658Z,7.66
2023-02-19T16:58:01.302Z,7.61
2023-02-19T17:00:31.845Z,7.58
2023-02-19T17:03:08.945Z,7.55
2023-02-19T17:05:39.323Z,7.52
2023-02-19T17:08:46.216Z,7.50
2023-02-19T17:11:16.916Z,7.50
2023-02-19T17:13:46.805Z,7.49
2023-02-19T17:16:27.346Z,7.49
2023-02-19T17:18:56.194Z,7.50
2023-02-19T17:21:30.273Z,7.48
2023-02-19T17:23:58.608Z,7.48
2023-02-19T17:26:31.550Z,7.49
2023-02-19T17:29:02.012Z,7.50
2023-02-19T17:31:30.588Z,7.50
2023-02-19T17:34:02.105Z,7.51
2023-02-19T17:36:32.256Z,7.50
2023-02-19T17:39:03.158Z,7.54
2023-02-19T17:41:32.244Z,7.58
2023-02-19T17:44:00.734Z,7.60
2023-02-19T17:46:28.863Z,7.63
2023-02-19T17:49:07.849Z,7.68
2023-02-19T17:51:36.114Z,7.68
2023-02-19T17:54:05.845Z,7.69
2023-02-19T17:56:36.161Z,7.68
2023-02-19T17:59:04.520Z,7.67
2023-02-19T18:01:33.153Z,7.69
2023-02-19T18:04:01.748Z,7.70
2023-02-19T18:06:30.486Z,7.74
2023-02-19T18:08:58.857Z,7.77
2023-02-19T18:11:27.250Z,7.77
2023-02-19T18:13:55.832Z,7.79
2023-02-19T18:16:27.405Z,7.82
2023-02-19T18:18:58.425Z,7.85
2023-02-19T18:21:26.986Z,7.90
2023-02-19T18:23:55.277Z,7.92
2023-02-19T18:26:33.493Z,7.91
2023-02-19T18:29:01.762Z,7.89
2023-02-19T18:31:32.892Z,7.87
2023-02-19T18:34:01.185Z,7.86
2023-02-19T18:36:33.049Z,7.87
2023-02-19T18:39:04.399Z,7.86
2023-02-19T18:41:32.568Z,7.86
2023-02-19T18:44:00.954Z,7.85
2023-02-19T18:46:30.902Z,7.75
2023-02-19T18:49:02.217Z,7.66
2023-02-19T18:51:31.006Z,7.50
2023-02-19T18:54:01.776Z,7.40
2023-02-19T18:56:31.141Z,7.32
2023-02-19T18:59:00.539Z,7.21
2023-02-19T19:01:31.694Z,7.05
2023-02-19T19:04:01.905Z,6.90
2023-02-19T19:06:30.368Z,6.74
2023-02-19T19:08:58.686Z,6.52
2023-02-19T19:11:26.985Z,6.32
2023-02-19T19:13:55.515Z,6.17
2023-02-19T19:16:28.742Z,6.04
2023-02-19T19:18:57.511Z,5.89
2023-02-19T19:21:25.936Z,5.80
2023-02-19T19:23:56.940Z,5.70
2023-02-19T19:26:25.143Z,5.61
2023-02-19T19:28:53.587Z,5.53
2023-02-19T19:31:23.025Z,5.41
2023-02-19T19:33:51.384Z,5.23
2023-02-19T19:36:23.297Z,5.15
2023-02-19T19:38:51.715Z,5.13
2023-02-19T19:41:20.736Z,5.09
2023-02-19T19:43:48.785Z,5.07
2023-02-19T19:46:20.003Z,5.06
2023-02-19T19:48:50.007Z,5.07
2023-02-19T19:51:18.680Z,5.08
2023-02-19T19:53:48.246Z,5.07
2023-02-19T19:56:18.168Z,5.07
2023-02-19T19:58:48.147Z,5.06
2023-02-19T20:01:21.217Z,5.07
2023-02-19T20:03:51.346Z,5.08
2023-02-19T20:06:31.130Z,5.07
2023-02-19T20:09:00.159Z,5.03
2023-02-19T20:11:28.703Z,5.00
2023-02-19T20:13:57.087Z,4.98
2023-02-19T20:16:29.192Z,4.97
2023-02-19T20:18:57.429Z,4.97
2023-02-19T20:21:26.420Z,4.95
2023-02-19T20:23:54.695Z,4.93
2023-02-19T20:26:27.899Z,4.92
2023-02-19T20:28:56.515Z,4.91
2023-02-19T20:31:25.347Z,4.90
2023-02-19T20:33:53.945Z,4.89
2023-02-19T20:36:22.265Z,4.87
2023-02-19T20:38:50.608Z,4.85
2023-02-19T20:41:19.185Z,4.83
2023-02-19T20:43:47.774Z,4.81
2023-02-19T20:46:16.107Z,4.81
2023-02-19T20:48:44.929Z,4.79
2023-02-19T20:51:13.133Z,4.78
2023-02-19T20:53:42.430Z,4.77
2023-02-19T20:56:11.689Z,4.76
2023-02-19T20:58:43.469Z,4.74
2023-02-19T21:01:12.248Z,4.70
2023-02-19T21:03:40.475Z,4.67
2023-02-19T21:06:09.047Z,4.66
2023-02-19T21:08:37.388Z,4.66
2023-02-19T21:11:05.881Z,4.67
2023-02-19T21:13:36.734Z,4.67
2023-02-19T21:16:05.316Z,4.66
2023-02-19T21:18:33.576Z,4.65
2023-02-19T21:21:01.808Z,4.65
2023-02-19T21:23:30.853Z,4.63
2023-02-19T21:26:01.685Z,4.60
2023-02-19T21:28:29.960Z,4.60
2023-02-19T21:30:58.333Z,4.60
2023-02-19T21:33:26.573Z,4.58
2023-02-19T21:35:54.709Z,4.54
2023-02-19T21:38:23.123Z,4.52
2023-02-19T21:40:51.856Z,4.49
2023-02-19T21:43:33.238Z,4.46
2023-02-19T21:46:04.295Z,4.43
2023-02-19T21:48:35.728Z,4.41
2023-02-19T21:51:07.075Z,4.30
2023-02-19T21:53:35.975Z,4.18
2023-02-19T21:56:04.653Z,4.14
2023-02-19T21:58:37.092Z,4.12
2023-02-19T22:01:05.650Z,4.05
2023-02-19T22:03:34.199Z,4.02
2023-02-19T22:06:02.672Z,3.89
2023-02-19T22:08:31.184Z,3.82
2023-02-19T22:11:00.429Z,3.74
2023-02-19T22:13:28.776Z,3.65
2023-02-19T22:15:56.916Z,3.54
2023-02-19T22:18:31.174Z,3.46
2023-02-19T22:21:08.969Z,3.38
2023-02-19T22:23:37.140Z,3.32
2023-02-19T22:26:05.420Z,3.28
2023-02-19T22:28:33.716Z,3.22
2023-02-19T22:31:01.871Z,3.18
2023-02-19T22:33:30.360Z,3.15
2023-02-19T22:35:58.434Z,3.10
2023-02-19T22:38:26.609Z,3.00
2023-02-19T22:40:54.644Z,2.94
2023-02-19T22:43:22.956Z,2.91
2023-02-19T22:45:50.987Z,2.85
2023-02-19T22:48:29.608Z,2.81
2023-02-19T22:50:58.997Z,2.76
2023-02-19T22:53:27.096Z,2.72
2023-02-19T22:55:55.182Z,2.71
2023-02-19T22:58:23.570Z,2.69
2023-02-19T23:00:52.073Z,2.67
2023-02-19T23:03:20.430Z,2.63
2023-02-19T23:05:48.805Z,2.55
2023-02-19T23:08:17.397Z,2.53
2023-02-19T23:10:45.777Z,2.50
2023-02-19T23:13:14.252Z,2.41
2023-02-19T23:15:42.365Z,2.37
2023-02-19T23:18:10.501Z,2.37
2023-02-19T23:20:38.554Z,2.36
2023-02-19T23:23:06.858Z,2.32
2023-02-19T23:25:35.149Z,2.28
2023-02-19T23:28:03.672Z,2.26
2023-02-19T23:30:32.238Z,2.24
2023-02-19T23:33:00.480Z,2.23
2023-02-19T23:35:32.233Z,2.18
2023-02-19T23:38:01.534Z,2.14
2023-02-19T23:40:29.434Z,2.13
2023-02-19T23:42:57.673Z,2.11
2023-02-19T23:45:26.009Z,2.07
2023-02-19T23:47:57.090Z,2.01
2023-02-19T23:50:25.984Z,1.96
2023-02-19T23:52:56.619Z,1.92
2023-02-19T23:55:28.184Z,1.86
2023-02-19T23:57:56.440Z,1.79
